sensor_id;sensor_type;location;lat;lon;timestamp;temperature;humidity
4615;DHT22;2320;51.362;6.946;2023-12-20T00:00:51;9.10;99.90
4615;DHT22;2320;51.362;6.946;2023-12-20T00:03:17;9.10;99.90
4615;DHT22;2320;51.362;6.946;2023-12-20T00:05:42;9.00;99.90
4615;DHT22;2320;51.362;6.946;2023-12-20T00:08:08;8.90;99.90
4615;DHT22;2320;51.362;6.946;2023-12-20T00:10:33;9.00;99.90
4615;DHT22;2320;51.362;6.946;2023-12-20T00:12:58;9.10;99.90
4615;DHT22;2320;51.362;6.946;2023-12-20T00:15:24;9.00;99.90
4615;DHT22;2320;51.362;6.946;2023-12-20T00:17:49;8.90;99.90
4615;DHT22;2320;51.362;6.946;2023-12-20T00:20:15;8.90;99.90
4615;DHT22;2320;51.362;6.946;2023-12-20T00:22:41;8.90;99.90
4615;DHT22;2320;51.362;6.946;2023-12-20T00:25:06;9.00;99.90
4615;DHT22;2320;51.362;6.946;2023-12-20T00:27:32;9.00;99.90
4615;DHT22;2320;51.362;6.946;2023-12-20T00:29:57;9.00;99.90
4615;DHT22;2320;51.362;6.946;2023-12-20T00:32:23;9.00;99.90
4615;DHT22;2320;51.362;6.946;2023-12-20T00:34:48;9.00;99.90
4615;DHT22;2320;51.362;6.946;2023-12-20T00:37:14;8.90;99.90
4615;DHT22;2320;51.362;6.946;2023-12-20T00:39:39;8.90;99.90
4615;DHT22;2320;51.362;6.946;2023-12-20T00:42:05;8.80;99.90
4615;DHT22;2320;51.362;6.946;2023-12-20T00:44:30;8.60;99.90
4615;DHT22;2320;51.362;6.946;2023-12-20T00:46:56;8.50;99.90
4615;DHT22;2320;51.362;6.946;2023-12-20T00:49:21;8.40;99.90
4615;DHT22;2320;51.362;6.946;2023-12-20T00:51:47;8.40;99.90
4615;DHT22;2320;51.362;6.946;2023-12-20T00:54:13;8.30;99.90
4615;DHT22;2320;51.362;6.946;2023-12-20T00:56:38;8.40;99.90
4615;DHT22;2320;51.362;6.946;2023-12-20T00:59:04;8.40;99.90
4615;DHT22;2320;51.362;6.946;2023-12-20T01:01:29;8.40;99.90
4615;DHT22;2320;51.362;6.946;2023-12-20T01:03:55;8.30;99.90
4615;DHT22;2320;51.362;6.946;2023-12-20T01:06:20;8.30;99.90
4615;DHT22;2320;51.362;6.946;2023-12-20T01:08:46;8.30;99.90
4615;DHT22;2320;51.362;6.946;2023-12-20T01:11:11;8.30;99.90
4615;DHT22;2320;51.362;6.946;2023-12-20T01:13:37;8.30;99.90
4615;DHT22;2320;51.362;6.946;2023-12-20T01:16:02;8.30;99.90
4615;DHT22;2320;51.362;6.946;2023-12-20T01:18:28;8.40;99.90
4615;DHT22;2320;51.362;6.946;2023-12-20T01:20:53;8.40;99.90
4615;DHT22;2320;51.362;6.946;2023-12-20T01:23:19;8.40;99.90
4615;DHT22;2320;51.362;6.946;2023-12-20T01:25:44;8.40;99.90
4615;DHT22;2320;51.362;6.946;2023-12-20T01:28:10;8.50;99.90
4615;DHT22;2320;51.362;6.946;2023-12-20T01:30:35;8.50;99.90
4615;DHT22;2320;51.362;6.946;2023-12-20T01:33:01;8.40;99.90
4615;DHT22;2320;51.362;6.946;2023-12-20T01:35:26;8.40;99.90
4615;DHT22;2320;51.362;6.946;2023-12-20T01:37:52;8.30;99.90
4615;DHT22;2320;51.362;6.946;2023-12-20T01:40:22;8.30;99.90
4615;DHT22;2320;51.362;6.946;2023-12-20T01:42:47;8.20;99.90
4615;DHT22;2320;51.362;6.946;2023-12-20T01:45:13;8.20;99.90
4615;DHT22;2320;51.362;6.946;2023-12-20T01:47:38;8.20;99.90
4615;DHT22;2320;51.362;6.946;2023-12-20T01:50:04;8.20;99.90
4615;DHT22;2320;51.362;6.946;2023-12-20T01:52:30;8.20;99.90
4615;DHT22;2320;51.362;6.946;2023-12-20T01:54:56;8.10;99.90
4615;DHT22;2320;51.362;6.946;2023-12-20T01:57:27;8.20;99.90
4615;DHT22;2320;51.362;6.946;2023-12-20T01:59:53;8.10;99.90
4615;DHT22;2320;51.362;6.946;2023-12-20T02:02:19;8.10;99.90
4615;DHT22;2320;51.362;6.946;2023-12-20T02:04:45;8.10;99.90
4615;DHT22;2320;51.362;6.946;2023-12-20T02:07:11;8.10;99.90
4615;DHT22;2320;51.362;6.946;2023-12-20T02:09:36;7.90;99.90
4615;DHT22;2320;51.362;6.946;2023-12-20T02:12:03;7.80;99.90
4615;DHT22;2320;51.362;6.946;2023-12-20T02:14:28;7.60;99.90
4615;DHT22;2320;51.362;6.946;2023-12-20T02:16:54;7.60;99.90
4615;DHT22;2320;51.362;6.946;2023-12-20T02:19:20;7.50;99.90
4615;DHT22;2320;51.362;6.946;2023-12-20T02:21:45;7.50;99.90
4615;DHT22;2320;51.362;6.946;2023-12-20T02:24:11;7.40;99.90
4615;DHT22;2320;51.362;6.946;2023-12-20T02:26:36;7.40;99.90
4615;DHT22;2320;51.362;6.946;2023-12-20T02:29:02;7.40;99.90
4615;DHT22;2320;51.362;6.946;2023-12-20T02:31:27;7.30;99.90
4615;DHT22;2320;51.362;6.946;2023-12-20T02:33:53;7.40;99.90
4615;DHT22;2320;51.362;6.946;2023-12-20T02:36:18;7.40;99.90
4615;DHT22;2320;51.362;6.946;2023-12-20T02:38:44;7.50;99.90
4615;DHT22;2320;51.362;6.946;2023-12-20T02:41:09;7.40;99.90
4615;DHT22;2320;51.362;6.946;2023-12-20T02:43:34;7.50;99.90
4615;DHT22;2320;51.362;6.946;2023-12-20T02:46:00;7.50;99.90
4615;DHT22;2320;51.362;6.946;2023-12-20T02:48:25;7.60;99.90
4615;DHT22;2320;51.362;6.946;2023-12-20T02:50:51;7.60;99.90
4615;DHT22;2320;51.362;6.946;2023-12-20T02:53:17;7.60;99.90
4615;DHT22;2320;51.362;6.946;2023-12-20T02:55:42;7.60;99.90
4615;DHT22;2320;51.362;6.946;2023-12-20T02:58:07;7.50;99.90
4615;DHT22;2320;51.362;6.946;2023-12-20T03:00:33;7.50;99.90
4615;DHT22;2320;51.362;6.946;2023-12-20T03:02:59;7.50;99.90
4615;DHT22;2320;51.362;6.946;2023-12-20T03:05:25;7.50;99.90
4615;DHT22;2320;51.362;6.946;2023-12-20T03:07:50;7.60;99.90
4615;DHT22;2320;51.362;6.946;2023-12-20T03:10:15;7.60;99.90
4615;DHT22;2320;51.362;6.946;2023-12-20T03:12:41;7.60;99.90
4615;DHT22;2320;51.362;6.946;2023-12-20T03:15:07;7.50;99.90
4615;DHT22;2320;51.362;6.946;2023-12-20T03:17:32;7.50;99.90
4615;DHT22;2320;51.362;6.946;2023-12-20T03:19:58;7.50;99.90
4615;DHT22;2320;51.362;6.946;2023-12-20T03:22:23;7.60;99.90
4615;DHT22;2320;51.362;6.946;2023-12-20T03:24:48;7.50;99.90
4615;DHT22;2320;51.362;6.946;2023-12-20T03:27:14;7.40;99.90
4615;DHT22;2320;51.362;6.946;2023-12-20T03:29:39;7.40;99.90
4615;DHT22;2320;51.362;6.946;2023-12-20T03:32:05;7.30;99.90
4615;DHT22;2320;51.362;6.946;2023-12-20T03:34:31;7.30;99.90
4615;DHT22;2320;51.362;6.946;2023-12-20T03:36:56;7.30;99.90
4615;DHT22;2320;51.362;6.946;2023-12-20T03:39:22;7.20;99.90
4615;DHT22;2320;51.362;6.946;2023-12-20T03:41:47;7.20;99.90
4615;DHT22;2320;51.362;6.946;2023-12-20T03:44:13;7.20;99.90
4615;DHT22;2320;51.362;6.946;2023-12-20T03:46:38;7.30;99.90
4615;DHT22;2320;51.362;6.946;2023-12-20T03:49:03;7.20;99.90
4615;DHT22;2320;51.362;6.946;2023-12-20T03:51:29;7.30;99.90
4615;DHT22;2320;51.362;6.946;2023-12-20T03:53:54;7.30;99.90
4615;DHT22;2320;51.362;6.946;2023-12-20T03:56:20;7.20;99.90
4615;DHT22;2320;51.362;6.946;2023-12-20T03:58:45;7.20;99.90
4615;DHT22;2320;51.362;6.946;2023-12-20T04:01:11;7.10;99.90
4615;DHT22;2320;51.362;6.946;2023-12-20T04:03:38;7.20;99.90
4615;DHT22;2320;51.362;6.946;2023-12-20T04:06:03;7.10;99.90
4615;DHT22;2320;51.362;6.946;2023-12-20T04:08:29;7.10;99.90
4615;DHT22;2320;51.362;6.946;2023-12-20T04:10:54;7.10;99.90
4615;DHT22;2320;51.362;6.946;2023-12-20T04:13:19;7.10;99.90
4615;DHT22;2320;51.362;6.946;2023-12-20T04:15:45;7.10;99.90
4615;DHT22;2320;51.362;6.946;2023-12-20T04:18:10;7.10;99.90
4615;DHT22;2320;51.362;6.946;2023-12-20T04:20:36;7.10;99.90
4615;DHT22;2320;51.362;6.946;2023-12-20T04:23:01;7.10;99.90
4615;DHT22;2320;51.362;6.946;2023-12-20T04:25:27;7.00;99.90
4615;DHT22;2320;51.362;6.946;2023-12-20T04:27:52;7.00;99.90
4615;DHT22;2320;51.362;6.946;2023-12-20T04:30:18;7.00;99.90
4615;DHT22;2320;51.362;6.946;2023-12-20T04:32:43;7.00;99.90
4615;DHT22;2320;51.362;6.946;2023-12-20T04:35:09;7.00;99.90
4615;DHT22;2320;51.362;6.946;2023-12-20T04:37:34;7.00;99.90
4615;DHT22;2320;51.362;6.946;2023-12-20T04:40:00;6.90;99.90
4615;DHT22;2320;51.362;6.946;2023-12-20T04:42:25;6.90;99.90
4615;DHT22;2320;51.362;6.946;2023-12-20T04:44:51;6.90;99.90
4615;DHT22;2320;51.362;6.946;2023-12-20T04:47:16;6.90;99.90
4615;DHT22;2320;51.362;6.946;2023-12-20T04:49:42;6.90;99.90
4615;DHT22;2320;51.362;6.946;2023-12-20T04:52:07;7.00;99.90
4615;DHT22;2320;51.362;6.946;2023-12-20T04:54:33;7.00;99.90
4615;DHT22;2320;51.362;6.946;2023-12-20T04:56:58;6.90;99.90
4615;DHT22;2320;51.362;6.946;2023-12-20T04:59:24;6.90;99.90
4615;DHT22;2320;51.362;6.946;2023-12-20T05:01:49;6.90;99.90
4615;DHT22;2320;51.362;6.946;2023-12-20T05:04:15;6.80;99.90
4615;DHT22;2320;51.362;6.946;2023-12-20T05:06:40;6.80;99.90
4615;DHT22;2320;51.362;6.946;2023-12-20T05:09:06;6.80;99.90
4615;DHT22;2320;51.362;6.946;2023-12-20T05:11:31;6.80;99.90
4615;DHT22;2320;51.362;6.946;2023-12-20T05:13:57;6.80;99.90
4615;DHT22;2320;51.362;6.946;2023-12-20T05:16:22;6.80;99.90
4615;DHT22;2320;51.362;6.946;2023-12-20T05:18:48;6.80;99.90
4615;DHT22;2320;51.362;6.946;2023-12-20T05:21:15;6.80;99.90
4615;DHT22;2320;51.362;6.946;2023-12-20T05:23:40;6.80;99.90
4615;DHT22;2320;51.362;6.946;2023-12-20T05:26:06;6.80;99.90
4615;DHT22;2320;51.362;6.946;2023-12-20T05:28:31;6.80;99.90
4615;DHT22;2320;51.362;6.946;2023-12-20T05:30:57;6.80;99.90
4615;DHT22;2320;51.362;6.946;2023-12-20T05:33:22;6.70;99.90
4615;DHT22;2320;51.362;6.946;2023-12-20T05:35:48;6.80;99.90
4615;DHT22;2320;51.362;6.946;2023-12-20T05:38:13;6.90;99.90
4615;DHT22;2320;51.362;6.946;2023-12-20T05:40:39;6.90;99.90
4615;DHT22;2320;51.362;6.946;2023-12-20T05:43:04;6.90;99.90
4615;DHT22;2320;51.362;6.946;2023-12-20T05:45:30;6.90;99.90
4615;DHT22;2320;51.362;6.946;2023-12-20T05:47:55;6.90;99.90
4615;DHT22;2320;51.362;6.946;2023-12-20T05:50:21;7.00;99.90
4615;DHT22;2320;51.362;6.946;2023-12-20T05:52:46;7.00;99.90
4615;DHT22;2320;51.362;6.946;2023-12-20T05:55:12;7.10;99.90
4615;DHT22;2320;51.362;6.946;2023-12-20T05:57:37;7.00;99.90
4615;DHT22;2320;51.362;6.946;2023-12-20T06:00:03;7.00;99.90
4615;DHT22;2320;51.362;6.946;2023-12-20T06:02:28;7.00;99.90
4615;DHT22;2320;51.362;6.946;2023-12-20T06:04:54;7.10;99.90
4615;DHT22;2320;51.362;6.946;2023-12-20T06:07:20;7.10;99.90
4615;DHT22;2320;51.362;6.946;2023-12-20T06:09:45;7.00;99.90
4615;DHT22;2320;51.362;6.946;2023-12-20T06:12:11;7.10;99.90
4615;DHT22;2320;51.362;6.946;2023-12-20T06:14:36;7.10;99.90
4615;DHT22;2320;51.362;6.946;2023-12-20T06:17:02;7.10;99.90
4615;DHT22;2320;51.362;6.946;2023-12-20T06:19:28;7.10;99.90
4615;DHT22;2320;51.362;6.946;2023-12-20T06:21:53;7.10;99.90
4615;DHT22;2320;51.362;6.946;2023-12-20T06:24:19;7.00;99.90
4615;DHT22;2320;51.362;6.946;2023-12-20T06:26:44;7.20;99.90
4615;DHT22;2320;51.362;6.946;2023-12-20T06:29:10;7.10;99.90
4615;DHT22;2320;51.362;6.946;2023-12-20T06:31:35;7.20;99.90
4615;DHT22;2320;51.362;6.946;2023-12-20T06:34:01;7.20;99.90
4615;DHT22;2320;51.362;6.946;2023-12-20T06:36:26;7.20;99.90
4615;DHT22;2320;51.362;6.946;2023-12-20T06:38:52;7.20;99.90
4615;DHT22;2320;51.362;6.946;2023-12-20T06:41:17;7.30;99.90
4615;DHT22;2320;51.362;6.946;2023-12-20T06:43:43;7.20;99.90
4615;DHT22;2320;51.362;6.946;2023-12-20T06:46:08;7.20;99.90
4615;DHT22;2320;51.362;6.946;2023-12-20T06:48:34;7.30;99.90
4615;DHT22;2320;51.362;6.946;2023-12-20T06:51:00;7.30;99.90
4615;DHT22;2320;51.362;6.946;2023-12-20T06:53:27;7.30;99.90
4615;DHT22;2320;51.362;6.946;2023-12-20T06:55:53;7.30;99.90
4615;DHT22;2320;51.362;6.946;2023-12-20T06:58:18;7.30;99.90
4615;DHT22;2320;51.362;6.946;2023-12-20T07:00:44;7.20;99.90
4615;DHT22;2320;51.362;6.946;2023-12-20T07:03:09;7.30;99.90
4615;DHT22;2320;51.362;6.946;2023-12-20T07:05:34;7.20;99.90
4615;DHT22;2320;51.362;6.946;2023-12-20T07:08:00;7.20;99.90
4615;DHT22;2320;51.362;6.946;2023-12-20T07:10:26;7.20;99.90
4615;DHT22;2320;51.362;6.946;2023-12-20T07:12:51;7.10;99.90
4615;DHT22;2320;51.362;6.946;2023-12-20T07:15:17;7.10;99.90
4615;DHT22;2320;51.362;6.946;2023-12-20T07:17:43;7.10;99.90
4615;DHT22;2320;51.362;6.946;2023-12-20T07:20:09;7.10;99.90
4615;DHT22;2320;51.362;6.946;2023-12-20T07:22:36;7.10;99.90
4615;DHT22;2320;51.362;6.946;2023-12-20T07:25:02;7.20;99.90
4615;DHT22;2320;51.362;6.946;2023-12-20T07:27:28;7.10;99.90
4615;DHT22;2320;51.362;6.946;2023-12-20T07:29:54;7.10;99.90
4615;DHT22;2320;51.362;6.946;2023-12-20T07:32:19;7.20;99.90
4615;DHT22;2320;51.362;6.946;2023-12-20T07:34:45;7.20;99.90
4615;DHT22;2320;51.362;6.946;2023-12-20T07:37:10;7.20;99.90
4615;DHT22;2320;51.362;6.946;2023-12-20T07:39:40;7.20;99.90
4615;DHT22;2320;51.362;6.946;2023-12-20T07:42:06;7.30;99.90
4615;DHT22;2320;51.362;6.946;2023-12-20T07:44:32;7.30;99.90
4615;DHT22;2320;51.362;6.946;2023-12-20T07:46:57;7.20;99.90
4615;DHT22;2320;51.362;6.946;2023-12-20T07:49:23;7.30;99.90
4615;DHT22;2320;51.362;6.946;2023-12-20T07:51:49;7.30;99.90
4615;DHT22;2320;51.362;6.946;2023-12-20T07:54:15;7.30;99.90
4615;DHT22;2320;51.362;6.946;2023-12-20T07:56:41;7.30;99.90
4615;DHT22;2320;51.362;6.946;2023-12-20T07:59:06;7.30;99.90
4615;DHT22;2320;51.362;6.946;2023-12-20T08:01:32;7.30;99.90
4615;DHT22;2320;51.362;6.946;2023-12-20T08:03:57;7.30;99.90
4615;DHT22;2320;51.362;6.946;2023-12-20T08:06:23;7.30;99.90
4615;DHT22;2320;51.362;6.946;2023-12-20T08:08:48;7.40;99.90
4615;DHT22;2320;51.362;6.946;2023-12-20T08:11:14;7.40;99.90
4615;DHT22;2320;51.362;6.946;2023-12-20T08:13:39;7.40;99.90
4615;DHT22;2320;51.362;6.946;2023-12-20T08:16:05;7.30;99.90
4615;DHT22;2320;51.362;6.946;2023-12-20T08:18:31;7.40;99.90
4615;DHT22;2320;51.362;6.946;2023-12-20T08:20:56;7.40;99.90
4615;DHT22;2320;51.362;6.946;2023-12-20T08:23:21;7.40;99.90
4615;DHT22;2320;51.362;6.946;2023-12-20T08:25:47;7.40;99.90
4615;DHT22;2320;51.362;6.946;2023-12-20T08:28:13;7.50;99.90
4615;DHT22;2320;51.362;6.946;2023-12-20T08:30:39;7.40;99.90
4615;DHT22;2320;51.362;6.946;2023-12-20T08:33:04;7.50;99.90
4615;DHT22;2320;51.362;6.946;2023-12-20T08:35:30;7.50;99.90
4615;DHT22;2320;51.362;6.946;2023-12-20T08:37:56;7.50;99.90
4615;DHT22;2320;51.362;6.946;2023-12-20T08:40:21;7.60;99.90
4615;DHT22;2320;51.362;6.946;2023-12-20T08:42:47;7.60;99.90
4615;DHT22;2320;51.362;6.946;2023-12-20T08:45:12;7.60;99.90
4615;DHT22;2320;51.362;6.946;2023-12-20T08:47:38;7.60;99.90
4615;DHT22;2320;51.362;6.946;2023-12-20T08:50:03;7.60;99.90
4615;DHT22;2320;51.362;6.946;2023-12-20T08:52:29;7.70;99.90
4615;DHT22;2320;51.362;6.946;2023-12-20T08:54:54;7.60;99.90
4615;DHT22;2320;51.362;6.946;2023-12-20T08:57:20;7.60;99.90
4615;DHT22;2320;51.362;6.946;2023-12-20T08:59:47;7.60;99.90
4615;DHT22;2320;51.362;6.946;2023-12-20T09:02:13;7.50;99.90
4615;DHT22;2320;51.362;6.946;2023-12-20T09:04:39;7.60;99.90
4615;DHT22;2320;51.362;6.946;2023-12-20T09:07:04;7.50;99.90
4615;DHT22;2320;51.362;6.946;2023-12-20T09:09:30;7.50;99.90
4615;DHT22;2320;51.362;6.946;2023-12-20T09:11:57;7.60;99.90
4615;DHT22;2320;51.362;6.946;2023-12-20T09:14:23;7.70;99.90
4615;DHT22;2320;51.362;6.946;2023-12-20T09:16:48;7.60;99.90
4615;DHT22;2320;51.362;6.946;2023-12-20T09:19:16;7.70;99.90
4615;DHT22;2320;51.362;6.946;2023-12-20T09:21:42;7.70;99.90
4615;DHT22;2320;51.362;6.946;2023-12-20T09:24:07;7.60;99.90
4615;DHT22;2320;51.362;6.946;2023-12-20T09:26:34;7.70;99.90
4615;DHT22;2320;51.362;6.946;2023-12-20T09:28:59;7.70;99.90
4615;DHT22;2320;51.362;6.946;2023-12-20T09:31:25;7.70;99.90
4615;DHT22;2320;51.362;6.946;2023-12-20T09:33:50;7.70;99.90
4615;DHT22;2320;51.362;6.946;2023-12-20T09:36:16;7.70;99.90
4615;DHT22;2320;51.362;6.946;2023-12-20T09:38:41;7.80;99.90
4615;DHT22;2320;51.362;6.946;2023-12-20T09:41:07;7.90;99.90
4615;DHT22;2320;51.362;6.946;2023-12-20T09:43:33;7.80;99.90
4615;DHT22;2320;51.362;6.946;2023-12-20T09:46:00;7.90;99.90
4615;DHT22;2320;51.362;6.946;2023-12-20T09:48:28;7.80;99.90
4615;DHT22;2320;51.362;6.946;2023-12-20T09:50:54;7.80;99.90
4615;DHT22;2320;51.362;6.946;2023-12-20T09:53:20;7.90;99.90
4615;DHT22;2320;51.362;6.946;2023-12-20T09:55:46;8.00;99.90
4615;DHT22;2320;51.362;6.946;2023-12-20T09:58:12;8.00;99.90
4615;DHT22;2320;51.362;6.946;2023-12-20T10:00:37;8.00;99.90
4615;DHT22;2320;51.362;6.946;2023-12-20T10:03:03;8.10;99.90
4615;DHT22;2320;51.362;6.946;2023-12-20T10:05:29;8.00;99.90
4615;DHT22;2320;51.362;6.946;2023-12-20T10:07:55;8.00;99.90
4615;DHT22;2320;51.362;6.946;2023-12-20T10:10:21;8.00;99.90
4615;DHT22;2320;51.362;6.946;2023-12-20T10:13:02;8.00;99.90
4615;DHT22;2320;51.362;6.946;2023-12-20T10:15:28;8.00;99.90
4615;DHT22;2320;51.362;6.946;2023-12-20T10:17:54;8.00;99.90
4615;DHT22;2320;51.362;6.946;2023-12-20T10:20:20;7.90;99.90
4615;DHT22;2320;51.362;6.946;2023-12-20T10:22:46;7.90;99.90
4615;DHT22;2320;51.362;6.946;2023-12-20T10:25:11;7.90;99.90
4615;DHT22;2320;51.362;6.946;2023-12-20T10:27:37;7.80;99.90
4615;DHT22;2320;51.362;6.946;2023-12-20T10:30:03;7.90;99.90
4615;DHT22;2320;51.362;6.946;2023-12-20T10:32:28;8.00;99.90
4615;DHT22;2320;51.362;6.946;2023-12-20T10:34:54;8.00;99.90
4615;DHT22;2320;51.362;6.946;2023-12-20T10:37:20;8.00;99.90
4615;DHT22;2320;51.362;6.946;2023-12-20T10:39:49;8.00;99.90
4615;DHT22;2320;51.362;6.946;2023-12-20T10:42:16;8.00;99.90
4615;DHT22;2320;51.362;6.946;2023-12-20T10:44:42;8.10;99.90
4615;DHT22;2320;51.362;6.946;2023-12-20T10:47:08;8.00;99.90
4615;DHT22;2320;51.362;6.946;2023-12-20T10:49:35;8.00;99.90
4615;DHT22;2320;51.362;6.946;2023-12-20T10:52:01;7.90;99.90
4615;DHT22;2320;51.362;6.946;2023-12-20T10:54:27;7.90;99.90
4615;DHT22;2320;51.362;6.946;2023-12-20T10:56:53;7.90;99.90
4615;DHT22;2320;51.362;6.946;2023-12-20T10:59:19;8.00;99.90
4615;DHT22;2320;51.362;6.946;2023-12-20T11:01:45;8.00;99.90
4615;DHT22;2320;51.362;6.946;2023-12-20T11:04:14;8.10;99.90
4615;DHT22;2320;51.362;6.946;2023-12-20T11:06:51;8.10;99.90
4615;DHT22;2320;51.362;6.946;2023-12-20T11:09:24;8.10;99.90
4615;DHT22;2320;51.362;6.946;2023-12-20T11:14:20;8.10;99.90
4615;DHT22;2320;51.362;6.946;2023-12-20T11:16:47;8.20;99.90
4615;DHT22;2320;51.362;6.946;2023-12-20T11:19:13;8.10;99.90
4615;DHT22;2320;51.362;6.946;2023-12-20T11:21:41;8.10;99.90
4615;DHT22;2320;51.362;6.946;2023-12-20T11:24:07;8.20;99.90
4615;DHT22;2320;51.362;6.946;2023-12-20T11:26:33;8.30;99.90
4615;DHT22;2320;51.362;6.946;2023-12-20T11:31:43;8.10;99.90
4615;DHT22;2320;51.362;6.946;2023-12-20T11:34:14;8.10;99.90
4615;DHT22;2320;51.362;6.946;2023-12-20T11:36:42;8.10;99.90
4615;DHT22;2320;51.362;6.946;2023-12-20T11:39:08;8.20;99.90
4615;DHT22;2320;51.362;6.946;2023-12-20T11:41:36;8.30;99.90
4615;DHT22;2320;51.362;6.946;2023-12-20T11:44:01;8.30;99.90
4615;DHT22;2320;51.362;6.946;2023-12-20T11:46:29;8.40;99.90
4615;DHT22;2320;51.362;6.946;2023-12-20T11:48:56;8.40;99.90
4615;DHT22;2320;51.362;6.946;2023-12-20T11:51:21;8.50;99.90
4615;DHT22;2320;51.362;6.946;2023-12-20T11:53:50;8.60;99.90
4615;DHT22;2320;51.362;6.946;2023-12-20T11:56:16;8.60;99.90
4615;DHT22;2320;51.362;6.946;2023-12-20T11:58:41;8.60;99.90
4615;DHT22;2320;51.362;6.946;2023-12-20T12:01:08;8.60;99.90
4615;DHT22;2320;51.362;6.946;2023-12-20T12:03:33;8.50;99.90
4615;DHT22;2320;51.362;6.946;2023-12-20T12:05:59;8.60;99.90
4615;DHT22;2320;51.362;6.946;2023-12-20T12:08:26;8.50;99.90
4615;DHT22;2320;51.362;6.946;2023-12-20T12:10:51;8.40;99.90
4615;DHT22;2320;51.362;6.946;2023-12-20T12:13:17;8.30;99.90
4615;DHT22;2320;51.362;6.946;2023-12-20T12:15:42;8.20;99.90
4615;DHT22;2320;51.362;6.946;2023-12-20T12:18:08;8.20;99.90
4615;DHT22;2320;51.362;6.946;2023-12-20T12:20:34;8.20;99.90
4615;DHT22;2320;51.362;6.946;2023-12-20T12:23:00;8.10;99.90
4615;DHT22;2320;51.362;6.946;2023-12-20T12:25:26;8.00;99.90
4615;DHT22;2320;51.362;6.946;2023-12-20T12:27:52;8.00;99.90
4615;DHT22;2320;51.362;6.946;2023-12-20T12:30:17;8.00;99.90
4615;DHT22;2320;51.362;6.946;2023-12-20T12:32:44;8.00;99.90
4615;DHT22;2320;51.362;6.946;2023-12-20T12:35:09;8.10;99.90
4615;DHT22;2320;51.362;6.946;2023-12-20T12:37:35;8.20;99.90
4615;DHT22;2320;51.362;6.946;2023-12-20T12:40:03;8.20;99.90
4615;DHT22;2320;51.362;6.946;2023-12-20T12:42:29;8.30;99.90
4615;DHT22;2320;51.362;6.946;2023-12-20T12:44:54;8.30;99.90
4615;DHT22;2320;51.362;6.946;2023-12-20T12:47:21;8.30;99.90
4615;DHT22;2320;51.362;6.946;2023-12-20T12:49:47;8.30;99.90
4615;DHT22;2320;51.362;6.946;2023-12-20T12:52:13;8.40;99.90
4615;DHT22;2320;51.362;6.946;2023-12-20T12:54:38;8.40;99.90
4615;DHT22;2320;51.362;6.946;2023-12-20T12:57:04;8.30;99.90
4615;DHT22;2320;51.362;6.946;2023-12-20T12:59:29;8.20;99.90
4615;DHT22;2320;51.362;6.946;2023-12-20T13:01:55;8.30;99.90
4615;DHT22;2320;51.362;6.946;2023-12-20T13:04:20;8.30;99.90
4615;DHT22;2320;51.362;6.946;2023-12-20T13:06:46;8.20;99.90
4615;DHT22;2320;51.362;6.946;2023-12-20T13:09:12;8.10;99.90
4615;DHT22;2320;51.362;6.946;2023-12-20T13:11:37;8.10;99.90
4615;DHT22;2320;51.362;6.946;2023-12-20T13:14:03;8.10;99.90
4615;DHT22;2320;51.362;6.946;2023-12-20T13:16:29;8.10;99.90
4615;DHT22;2320;51.362;6.946;2023-12-20T13:18:54;8.00;99.90
4615;DHT22;2320;51.362;6.946;2023-12-20T13:21:20;8.10;99.90
4615;DHT22;2320;51.362;6.946;2023-12-20T13:23:45;8.10;99.90
4615;DHT22;2320;51.362;6.946;2023-12-20T13:26:11;8.10;99.90
4615;DHT22;2320;51.362;6.946;2023-12-20T13:28:36;8.10;99.90
4615;DHT22;2320;51.362;6.946;2023-12-20T13:31:02;8.10;99.90
4615;DHT22;2320;51.362;6.946;2023-12-20T13:33:28;8.10;99.90
4615;DHT22;2320;51.362;6.946;2023-12-20T13:35:53;8.10;99.90
4615;DHT22;2320;51.362;6.946;2023-12-20T13:38:19;8.10;99.90
4615;DHT22;2320;51.362;6.946;2023-12-20T13:40:44;8.00;99.90
4615;DHT22;2320;51.362;6.946;2023-12-20T13:43:10;8.10;99.90
4615;DHT22;2320;51.362;6.946;2023-12-20T13:45:39;8.10;99.90
4615;DHT22;2320;51.362;6.946;2023-12-20T13:48:04;8.00;99.90
4615;DHT22;2320;51.362;6.946;2023-12-20T13:50:30;8.00;99.90
4615;DHT22;2320;51.362;6.946;2023-12-20T13:52:55;8.10;99.90
4615;DHT22;2320;51.362;6.946;2023-12-20T13:55:21;8.00;99.90
4615;DHT22;2320;51.362;6.946;2023-12-20T13:57:50;8.10;99.90
4615;DHT22;2320;51.362;6.946;2023-12-20T14:00:16;8.00;99.90
4615;DHT22;2320;51.362;6.946;2023-12-20T14:02:41;8.00;99.90
4615;DHT22;2320;51.362;6.946;2023-12-20T14:05:08;7.90;99.90
4615;DHT22;2320;51.362;6.946;2023-12-20T14:07:34;7.90;99.90
4615;DHT22;2320;51.362;6.946;2023-12-20T14:09:59;7.90;99.90
4615;DHT22;2320;51.362;6.946;2023-12-20T14:12:25;7.80;99.90
4615;DHT22;2320;51.362;6.946;2023-12-20T14:14:51;7.80;99.90
4615;DHT22;2320;51.362;6.946;2023-12-20T14:17:17;7.80;99.90
4615;DHT22;2320;51.362;6.946;2023-12-20T14:19:42;7.80;99.90
4615;DHT22;2320;51.362;6.946;2023-12-20T14:22:07;7.80;99.90
4615;DHT22;2320;51.362;6.946;2023-12-20T14:24:34;7.90;99.90
4615;DHT22;2320;51.362;6.946;2023-12-20T14:27:01;7.80;99.90
4615;DHT22;2320;51.362;6.946;2023-12-20T14:29:26;7.80;99.90
4615;DHT22;2320;51.362;6.946;2023-12-20T14:31:52;7.80;99.90
4615;DHT22;2320;51.362;6.946;2023-12-20T14:34:18;7.80;99.90
4615;DHT22;2320;51.362;6.946;2023-12-20T14:36:43;7.80;99.90
4615;DHT22;2320;51.362;6.946;2023-12-20T14:39:09;7.80;99.90
4615;DHT22;2320;51.362;6.946;2023-12-20T14:41:38;7.80;99.90
4615;DHT22;2320;51.362;6.946;2023-12-20T14:44:05;7.80;99.90
4615;DHT22;2320;51.362;6.946;2023-12-20T14:46:31;7.90;99.90
4615;DHT22;2320;51.362;6.946;2023-12-20T14:48:56;8.00;99.90
4615;DHT22;2320;51.362;6.946;2023-12-20T14:51:22;7.90;99.90
4615;DHT22;2320;51.362;6.946;2023-12-20T14:53:48;7.90;99.90
4615;DHT22;2320;51.362;6.946;2023-12-20T14:56:13;7.90;99.90
4615;DHT22;2320;51.362;6.946;2023-12-20T14:58:40;7.90;99.90
4615;DHT22;2320;51.362;6.946;2023-12-20T15:01:05;7.90;99.90
4615;DHT22;2320;51.362;6.946;2023-12-20T15:03:34;7.90;99.90
4615;DHT22;2320;51.362;6.946;2023-12-20T15:05:59;7.90;99.90
4615;DHT22;2320;51.362;6.946;2023-12-20T15:08:25;8.00;99.90
4615;DHT22;2320;51.362;6.946;2023-12-20T15:10:51;8.00;99.90
4615;DHT22;2320;51.362;6.946;2023-12-20T15:13:16;8.00;99.90
4615;DHT22;2320;51.362;6.946;2023-12-20T15:15:42;8.00;99.90
4615;DHT22;2320;51.362;6.946;2023-12-20T15:18:07;8.00;99.90
4615;DHT22;2320;51.362;6.946;2023-12-20T15:20:32;8.00;99.90
4615;DHT22;2320;51.362;6.946;2023-12-20T15:22:59;8.00;99.90
4615;DHT22;2320;51.362;6.946;2023-12-20T15:25:30;8.00;99.90
4615;DHT22;2320;51.362;6.946;2023-12-20T15:27:56;8.00;99.90
4615;DHT22;2320;51.362;6.946;2023-12-20T15:30:22;7.90;99.90
4615;DHT22;2320;51.362;6.946;2023-12-20T15:32:49;7.90;99.90
4615;DHT22;2320;51.362;6.946;2023-12-20T15:35:15;8.00;99.90
4615;DHT22;2320;51.362;6.946;2023-12-20T15:37:41;8.00;99.90
4615;DHT22;2320;51.362;6.946;2023-12-20T15:40:10;7.90;99.90
4615;DHT22;2320;51.362;6.946;2023-12-20T15:42:40;8.00;99.90
4615;DHT22;2320;51.362;6.946;2023-12-20T15:45:06;8.00;99.90
4615;DHT22;2320;51.362;6.946;2023-12-20T15:47:35;8.00;99.90
4615;DHT22;2320;51.362;6.946;2023-12-20T15:50:03;8.00;99.90
4615;DHT22;2320;51.362;6.946;2023-12-20T15:52:29;8.10;99.90
4615;DHT22;2320;51.362;6.946;2023-12-20T15:54:55;8.10;99.90
4615;DHT22;2320;51.362;6.946;2023-12-20T15:57:20;8.10;99.90
4615;DHT22;2320;51.362;6.946;2023-12-20T15:59:46;8.10;99.90
4615;DHT22;2320;51.362;6.946;2023-12-20T16:02:11;8.10;99.90
4615;DHT22;2320;51.362;6.946;2023-12-20T16:04:37;8.10;99.90
4615;DHT22;2320;51.362;6.946;2023-12-20T16:07:02;8.20;99.90
4615;DHT22;2320;51.362;6.946;2023-12-20T16:09:28;8.20;99.90
4615;DHT22;2320;51.362;6.946;2023-12-20T16:11:53;8.10;99.90